Time;durP1;ratioP1;P1;durP2;ratioP2;P2;SDS_P1;SDS_P2;PMS_P1;PMS_P2;Temp;Humidity;BMP_temperature;BMP_pressure;BME280_temperature;BME280_humidity;BME280_pressure;Samples;Min_cycle;Max_cycle;Signal;HPM_P1;HPM_P2
2023/05/26 00:03:27;;;;;;;;;;;17.50;69.30;;;;;;21085801;28;19924;-57
2023/05/26 00:13:27;;;;;;;;;;;17.40;69.70;;;;;;21087848;28;19924;-56
2023/05/26 00:23:28;;;;;;;;;;;17.40;69.40;;;;;;21084717;28;19977;-55
2023/05/26 00:33:29;;;;;;;;;;;17.30;70.00;;;;;;21083685;28;19924;-56
2023/05/26 00:43:29;;;;;;;;;;;17.20;70.80;;;;;;21083023;28;20061;-55
2023/05/26 00:53:30;;;;;;;;;;;17.10;72.10;;;;;;21083940;28;20295;-57
2023/05/26 01:03:31;;;;;;;;;;;17.00;72.90;;;;;;21082822;28;20309;-55
2023/05/26 01:13:40;;;;;;;;;;;16.90;72.80;;;;;;21082145;28;19928;-56
2023/05/26 01:23:40;;;;;;;;;;;16.90;73.40;;;;;;21080500;28;20310;-57
2023/05/26 01:33:41;;;;;;;;;;;16.90;71.50;;;;;;21079757;28;20018;-57
2023/05/26 01:43:47;;;;;;;;;;;16.80;71.80;;;;;;21079920;28;20287;-56
2023/05/26 01:53:48;;;;;;;;;;;16.80;72.30;;;;;;21086205;28;19977;-56
2023/05/26 02:03:49;;;;;;;;;;;16.80;72.10;;;;;;21095562;28;19975;-55
2023/05/26 02:13:50;;;;;;;;;;;16.70;71.70;;;;;;21094782;28;19927;-56
2023/05/26 02:23:50;;;;;;;;;;;16.70;71.80;;;;;;21093710;28;19971;-55
2023/05/26 02:33:51;;;;;;;;;;;16.60;73.00;;;;;;21093122;28;19964;-56
2023/05/26 02:43:51;;;;;;;;;;;16.50;73.50;;;;;;21093604;28;20403;-56
2023/05/26 02:53:52;;;;;;;;;;;16.40;74.40;;;;;;21092830;28;19928;-56
2023/05/26 03:03:53;;;;;;;;;;;16.40;75.50;;;;;;21090898;28;19924;-55
2023/05/26 03:13:53;;;;;;;;;;;16.30;76.50;;;;;;21091115;28;19986;-54
2023/05/26 03:23:54;;;;;;;;;;;16.20;77.40;;;;;;21089050;28;19924;-58
2023/05/26 03:33:55;;;;;;;;;;;16.10;77.60;;;;;;21089869;28;20319;-54
2023/05/26 03:43:55;;;;;;;;;;;16.10;77.90;;;;;;21087554;28;19931;-55
2023/05/26 03:53:56;;;;;;;;;;;16.00;77.70;;;;;;21088130;28;20289;-56
2023/05/26 04:03:56;;;;;;;;;;;15.90;77.90;;;;;;21087258;28;20390;-56
2023/05/26 04:13:57;;;;;;;;;;;15.80;77.40;;;;;;21086518;28;19924;-58
2023/05/26 04:23:58;;;;;;;;;;;15.70;78.20;;;;;;21085066;28;20406;-56
2023/05/26 04:33:59;;;;;;;;;;;15.70;78.10;;;;;;21085280;28;20015;-58
2023/05/26 04:44:00;;;;;;;;;;;15.70;77.40;;;;;;21084164;28;19946;-55
2023/05/26 04:54:00;;;;;;;;;;;15.60;78.10;;;;;;21083526;28;20388;-57
2023/05/26 05:04:01;;;;;;;;;;;15.60;78.80;;;;;;21082669;28;20010;-57
2023/05/26 05:14:02;;;;;;;;;;;15.60;78.60;;;;;;21081703;28;19924;-56
2023/05/26 05:24:02;;;;;;;;;;;15.70;77.70;;;;;;21078981;28;19924;-57
2023/05/26 05:34:03;;;;;;;;;;;15.60;78.40;;;;;;21079499;28;20000;-57
2023/05/26 05:44:04;;;;;;;;;;;15.60;78.10;;;;;;21079716;28;19925;-56
2023/05/26 05:54:05;;;;;;;;;;;15.70;77.70;;;;;;21078305;28;20015;-57
2023/05/26 06:04:05;;;;;;;;;;;15.70;77.90;;;;;;21077983;28;20277;-56
2023/05/26 06:14:06;;;;;;;;;;;15.90;77.10;;;;;;21079346;28;20411;-56
2023/05/26 06:24:07;;;;;;;;;;;16.00;77.30;;;;;;21076957;28;19982;-60
2023/05/26 06:34:08;;;;;;;;;;;16.10;77.00;;;;;;21076100;28;20274;-57
2023/05/26 06:44:08;;;;;;;;;;;16.20;77.10;;;;;;21089974;28;19975;-57
2023/05/26 06:54:09;;;;;;;;;;;16.30;76.40;;;;;;21092343;28;20373;-57
2023/05/26 07:04:10;;;;;;;;;;;16.40;76.30;;;;;;21090010;28;19975;-58
2023/05/26 07:14:10;;;;;;;;;;;16.50;76.00;;;;;;21090195;28;20274;-56
2023/05/26 07:24:11;;;;;;;;;;;16.60;75.90;;;;;;21089365;28;19947;-57
2023/05/26 07:34:12;;;;;;;;;;;16.70;75.50;;;;;;21087849;28;19967;-56
2023/05/26 07:44:12;;;;;;;;;;;16.90;75.60;;;;;;21088367;28;20412;-59
2023/05/26 07:54:13;;;;;;;;;;;16.90;75.50;;;;;;21087411;28;19931;-58
2023/05/26 08:04:13;;;;;;;;;;;17.00;75.10;;;;;;21085590;28;19924;-57
2023/05/26 08:14:15;;;;;;;;;;;17.10;74.30;;;;;;21085838;28;19977;-55
2023/05/26 08:24:16;;;;;;;;;;;17.20;74.80;;;;;;21085489;28;19924;-57
2023/05/26 08:34:17;;;;;;;;;;;17.30;73.60;;;;;;21083373;28;19931;-56
2023/05/26 08:44:17;;;;;;;;;;;17.30;74.60;;;;;;21081496;28;19931;-56
2023/05/26 08:54:18;;;;;;;;;;;17.40;74.50;;;;;;21081488;28;20293;-57
2023/05/26 09:04:18;;;;;;;;;;;17.60;75.80;;;;;;21079826;28;19924;-56
2023/05/26 09:14:20;;;;;;;;;;;18.00;72.40;;;;;;21078907;28;19924;-57
2023/05/26 09:24:23;;;;;;;;;;;17.90;71.30;;;;;;21077929;28;19924;-57
2023/05/26 09:34:23;;;;;;;;;;;18.00;69.00;;;;;;21078985;28;19924;-56
2023/05/26 09:44:24;;;;;;;;;;;18.10;69.10;;;;;;21078159;28;19924;-57
2023/05/26 09:54:25;;;;;;;;;;;18.20;69.30;;;;;;21076987;28;20018;-57
2023/05/26 10:04:27;;;;;;;;;;;18.30;68.70;;;;;;21078259;28;19971;-56
2023/05/26 10:14:27;;;;;;;;;;;18.50;66.50;;;;;;21082432;28;19955;-55
2023/05/26 10:24:31;;;;;;;;;;;18.50;66.80;;;;;;21091987;28;19924;-57
2023/05/26 10:34:36;;;;;;;;;;;18.50;66.60;;;;;;21092614;28;19949;-57
2023/05/26 10:44:41;;;;;;;;;;;18.60;66.10;;;;;;21091195;28;19924;-58
2023/05/26 10:54:47;;;;;;;;;;;18.20;67.20;;;;;;21090758;28;19981;-59
2023/05/26 11:04:49;;;;;;;;;;;18.30;67.10;;;;;;21090416;28;19946;-56
2023/05/26 11:14:49;;;;;;;;;;;18.50;65.00;;;;;;21090165;28;19924;-58
2023/05/26 11:24:51;;;;;;;;;;;18.70;64.80;;;;;;21087514;28;19969;-57
2023/05/26 11:34:51;;;;;;;;;;;19.20;62.60;;;;;;21087449;28;19924;-60
2023/05/26 11:44:55;;;;;;;;;;;19.60;61.40;;;;;;21085977;28;20007;-56
2023/05/26 11:54:57;;;;;;;;;;;19.80;61.20;;;;;;21084936;28;20061;-57
2023/05/26 12:04:57;;;;;;;;;;;19.90;60.80;;;;;;21084559;28;19924;-57
2023/05/26 12:15:07;;;;;;;;;;;20.20;59.50;;;;;;21082963;28;19924;-56
2023/05/26 12:25:08;;;;;;;;;;;20.30;58.50;;;;;;21082775;28;19957;-57
2023/05/26 12:35:08;;;;;;;;;;;20.20;59.40;;;;;;21081074;28;20116;-58
2023/05/26 12:45:09;;;;;;;;;;;20.20;58.60;;;;;;21082025;28;19960;-58
2023/05/26 12:55:10;;;;;;;;;;;20.50;57.10;;;;;;21079767;28;20007;-57
2023/05/26 13:05:10;;;;;;;;;;;20.70;56.30;;;;;;21077934;28;19924;-55
2023/05/26 13:15:12;;;;;;;;;;;20.80;56.60;;;;;;21079170;28;20388;-57
2023/05/26 13:25:13;;;;;;;;;;;20.60;58.10;;;;;;21069645;28;19966;-57
2023/05/26 13:35:14;;;;;;;;;;;20.40;58.60;;;;;;21060563;28;19938;-57
2023/05/26 13:45:15;;;;;;;;;;;20.50;57.70;;;;;;21071946;28;19950;-56
2023/05/26 13:55:16;;;;;;;;;;;20.30;63.80;;;;;;21084174;28;20014;-58
2023/05/26 14:05:18;;;;;;;;;;;19.80;67.20;;;;;;21106252;28;20011;-58
2023/05/26 14:15:18;;;;;;;;;;;19.80;68.30;;;;;;21089807;28;20377;-57
2023/05/26 14:25:19;;;;;;;;;;;19.70;68.00;;;;;;21097456;28;19924;-58
2023/05/26 14:35:19;;;;;;;;;;;19.80;67.70;;;;;;21106387;28;20450;-57
2023/05/26 14:45:20;;;;;;;;;;;20.00;66.50;;;;;;21098981;28;19967;-56
2023/05/26 14:55:23;;;;;;;;;;;20.10;64.10;;;;;;21097290;28;19924;-58
2023/05/26 15:05:23;;;;;;;;;;;20.20;62.60;;;;;;21090792;28;19924;-57
2023/05/26 15:15:24;;;;;;;;;;;20.00;63.20;;;;;;21089388;28;19969;-55
2023/05/26 15:25:24;;;;;;;;;;;19.80;64.00;;;;;;21087598;28;19991;-57
2023/05/26 15:35:25;;;;;;;;;;;19.60;70.90;;;;;;21086781;28;19924;-58
2023/05/26 15:45:27;;;;;;;;;;;19.80;66.70;;;;;;21086572;28;19993;-59
2023/05/26 15:55:27;;;;;;;;;;;20.20;69.30;;;;;;21085865;28;19978;-58
2023/05/26 16:05:28;;;;;;;;;;;19.50;72.10;;;;;;21084698;28;19924;-59
2023/05/26 16:15:30;;;;;;;;;;;19.40;73.10;;;;;;21082658;28;19924;-57
2023/05/26 16:25:30;;;;;;;;;;;19.40;72.90;;;;;;21083979;28;19967;-59
2023/05/26 16:35:39;;;;;;;;;;;19.60;71.60;;;;;;21082995;28;19935;-62
2023/05/26 16:45:39;;;;;;;;;;;19.90;68.10;;;;;;21083190;28;20369;-59
2023/05/26 16:55:40;;;;;;;;;;;20.00;67.60;;;;;;21080568;28;19931;-60
2023/05/26 17:05:40;;;;;;;;;;;19.70;68.50;;;;;;21080051;28;19928;-58
2023/05/26 17:15:41;;;;;;;;;;;19.70;68.00;;;;;;21079352;28;20363;-61
2023/05/26 17:25:42;;;;;;;;;;;20.00;70.50;;;;;;21072753;28;20024;-61
2023/05/26 17:35:42;;;;;;;;;;;19.80;71.10;;;;;;21070703;28;20416;-59
2023/05/26 17:45:43;;;;;;;;;;;19.70;70.30;;;;;;21078742;28;19928;-58
2023/05/26 17:55:43;;;;;;;;;;;19.70;70.80;;;;;;21078343;28;19928;-59
2023/05/26 18:05:44;;;;;;;;;;;19.50;70.30;;;;;;21077430;28;19970;-59
2023/05/26 18:15:45;;;;;;;;;;;19.40;69.40;;;;;;21076428;28;20331;-59
2023/05/26 18:25:46;;;;;;;;;;;19.60;68.70;;;;;;21077694;28;19931;-58
2023/05/26 18:35:47;;;;;;;;;;;19.80;68.80;;;;;;21081746;28;19924;-58
2023/05/26 18:45:47;;;;;;;;;;;19.70;70.70;;;;;;21093505;28;19963;-58
2023/05/26 18:55:48;;;;;;;;;;;19.60;69.10;;;;;;21093133;28;19971;-59
2023/05/26 19:05:48;;;;;;;;;;;19.30;69.60;;;;;;21091025;28;20014;-57
2023/05/26 19:15:49;;;;;;;;;;;19.20;69.60;;;;;;21088327;28;19976;-57
2023/05/26 19:25:50;;;;;;;;;;;19.20;69.70;;;;;;21087560;28;20391;-58
2023/05/26 19:35:50;;;;;;;;;;;19.10;70.00;;;;;;21088142;28;19968;-58
2023/05/26 19:45:51;;;;;;;;;;;18.90;69.70;;;;;;21085705;28;20389;-57
2023/05/26 19:55:52;;;;;;;;;;;18.80;69.50;;;;;;21084739;28;19987;-58
2023/05/26 20:05:53;;;;;;;;;;;18.80;69.70;;;;;;21083601;28;20401;-59
2023/05/26 20:15:53;;;;;;;;;;;18.70;70.00;;;;;;21086167;28;19924;-58
2023/05/26 20:25:54;;;;;;;;;;;18.70;69.90;;;;;;21084049;28;19950;-57
2023/05/26 20:35:55;;;;;;;;;;;18.50;70.70;;;;;;21082580;28;19931;-58
2023/05/26 20:45:55;;;;;;;;;;;18.50;70.60;;;;;;21082308;28;20381;-58
2023/05/26 20:55:59;;;;;;;;;;;18.30;71.30;;;;;;21082009;28;19924;-58
2023/05/26 21:06:00;;;;;;;;;;;18.20;71.30;;;;;;21081572;28;19950;-59
2023/05/26 21:16:01;;;;;;;;;;;18.10;72.10;;;;;;21081981;28;20003;-58
2023/05/26 21:26:01;;;;;;;;;;;18.10;71.90;;;;;;21081197;28;20058;-60
2023/05/26 21:36:02;;;;;;;;;;;18.00;71.70;;;;;;21079594;28;19982;-60
2023/05/26 21:46:03;;;;;;;;;;;18.10;71.50;;;;;;21080180;28;19932;-59
2023/05/26 21:56:04;;;;;;;;;;;18.10;71.10;;;;;;21079899;28;20327;-59
2023/05/26 22:06:05;;;;;;;;;;;18.10;71.60;;;;;;21079066;28;19925;-58
2023/05/26 22:16:05;;;;;;;;;;;18.10;71.50;;;;;;21093888;28;19924;-59
2023/05/26 22:26:06;;;;;;;;;;;18.10;71.60;;;;;;21094520;28;19930;-61
2023/05/26 22:36:07;;;;;;;;;;;18.20;71.10;;;;;;21094841;28;19924;-58
2023/05/26 22:46:07;;;;;;;;;;;18.10;71.70;;;;;;21093752;28;19928;-56
2023/05/26 22:56:08;;;;;;;;;;;18.10;72.00;;;;;;21091823;28;19924;-58
2023/05/26 23:06:09;;;;;;;;;;;17.90;72.20;;;;;;21090458;28;20282;-57
2023/05/26 23:16:09;;;;;;;;;;;17.80;72.40;;;;;;21091276;28;20365;-57
2023/05/26 23:26:10;;;;;;;;;;;17.70;72.30;;;;;;21088408;28;19924;-57
2023/05/26 23:36:10;;;;;;;;;;;17.80;71.60;;;;;;21090655;28;19977;-59
2023/05/26 23:46:11;;;;;;;;;;;17.70;71.20;;;;;;21089213;28;19931;-57
2023/05/26 23:56:12;;;;;;;;;;;17.70;71.40;;;;;;21088159;28;19928;-57
